Time;durP1;ratioP1;P1;durP2;ratioP2;P2;SDS_P1;SDS_P2;PMS_P1;PMS_P2;Temp;Humidity;BMP_temperature;BMP_pressure;BME280_temperature;BME280_humidity;BME280_pressure;Samples;Min_cycle;Max_cycle;Signal;HPM_P1;HPM_P2
2023/10/08 00:02:57;;;;;;;2.15;0.43;;;;;;;14.59;98.93;101323.09;5029947;28;20033;-67
2023/10/08 00:05:23;;;;;;;2.47;0.38;;;;;;;14.56;99.10;101331.94;5029393;28;20021;-67
2023/10/08 00:07:48;;;;;;;1.40;0.93;;;;;;;14.57;99.50;101338.16;5029223;28;20498;-68
2023/10/08 00:10:14;;;;;;;2.50;0.90;;;;;;;14.65;99.50;101359.59;5032544;28;20112;-68
2023/10/08 00:12:39;;;;;;;2.72;0.50;;;;;;;14.65;98.90;101356.88;5027409;28;20068;-67
2023/10/08 00:15:10;;;;;;;1.20;0.63;;;;;;;14.65;98.79;101369.66;5029522;28;20117;-68
2023/10/08 00:17:35;;;;;;;1.13;0.57;;;;;;;14.67;98.88;101362.72;5029896;28;20033;-67
2023/10/08 00:20:00;;;;;;;0.63;0.52;;;;;;;14.65;98.66;101362.31;5031589;28;20029;-68
2023/10/08 00:22:26;;;;;;;1.80;0.52;;;;;;;14.66;98.48;101353.03;5029743;28;20083;-68
2023/10/08 00:24:58;;;;;;;0.88;0.47;;;;;;;14.66;98.29;101342.16;5031111;28;20021;-67
2023/10/08 00:27:23;;;;;;;2.83;0.57;;;;;;;14.66;98.65;101349.50;5032249;28;20033;-68
2023/10/08 00:29:50;;;;;;;1.00;0.57;;;;;;;14.67;98.57;101357.31;5030108;28;20036;-68
2023/10/08 00:32:17;;;;;;;3.20;0.47;;;;;;;14.71;98.16;101346.50;5028786;28;20042;-67
2023/10/08 00:34:42;;;;;;;5.68;0.80;;;;;;;14.60;98.56;101353.69;5029200;28;20055;-69
2023/10/08 00:37:10;;;;;;;1.73;0.60;;;;;;;14.57;98.58;101359.84;5028401;28;20162;-68
2023/10/08 00:39:37;;;;;;;0.68;0.50;;;;;;;14.55;98.46;101359.41;5037302;28;20375;-68
2023/10/08 00:42:06;;;;;;;3.10;0.50;;;;;;;14.46;99.14;101371.28;5030604;28;20624;-68
2023/10/08 00:44:35;;;;;;;1.08;0.60;;;;;;;14.48;99.49;101385.25;5030758;28;20041;-67
2023/10/08 00:47:01;;;;;;;2.17;0.80;;;;;;;14.53;99.42;101399.66;5029823;28;20041;-68
2023/10/08 00:49:48;;;;;;;1.95;0.45;;;;;;;14.54;99.46;101407.44;5026814;28;20025;-68
2023/10/08 00:57:21;;;;;;;1.88;0.80;;;;;;;14.52;99.29;101417.84;5030615;28;20060;-68
2023/10/08 00:59:52;;;;;;;4.20;1.25;;;;;;;14.45;99.41;101426.66;5024359;28;20067;-67
2023/10/08 01:02:23;;;;;;;1.67;0.80;;;;;;;14.46;99.72;101411.16;5026859;28;20049;-68
2023/10/08 01:04:50;;;;;;;;;;;;;;;14.46;99.49;101403.81;5040006;28;20128;-68
2023/10/08 01:07:18;;;;;;;6.28;0.98;;;;;;;14.48;99.53;101406.94;5026232;28;19913;-68
2023/10/08 01:09:51;;;;;;;1.23;0.70;;;;;;;14.48;99.49;101410.81;5028566;28;20036;-68
2023/10/08 01:12:27;;;;;;;1.55;0.75;;;;;;;14.50;99.18;101420.13;5025490;28;20041;-68
2023/10/08 01:14:54;;;;;;;2.70;1.00;;;;;;;14.41;99.28;101409.56;5026188;28;20041;-66
2023/10/08 01:17:31;;;;;;;2.05;0.98;;;;;;;14.37;99.38;101421.47;5009158;28;20409;-68
2023/10/08 01:20:08;;;;;;;4.18;0.82;;;;;;;14.46;99.60;101422.00;5027442;28;20030;-67
2023/10/08 01:22:33;;;;;;;4.80;0.80;;;;;;;14.38;99.49;101423.81;5043174;28;20037;-68
2023/10/08 01:25:01;;;;;;;1.25;0.82;;;;;;;14.37;100.00;101430.38;5029966;28;20029;-68
2023/10/08 01:27:34;;;;;;;0.80;0.60;;;;;;;14.39;99.42;101421.88;5027815;28;20405;-67
2023/10/08 01:30:11;;;;;;;0.95;0.77;;;;;;;14.44;99.69;101438.63;5027569;28;20029;-69
2023/10/08 01:32:40;;;;;;;5.65;0.80;;;;;;;14.32;98.90;101433.38;5027957;28;20401;-67
2023/10/08 01:35:21;;;;;;;1.60;0.77;;;;;;;14.36;99.12;101430.75;5027598;28;20049;-68
2023/10/08 01:37:50;;;;;;;2.20;0.80;;;;;;;14.36;98.84;101422.63;5031187;28;20029;-68
2023/10/08 01:40:17;;;;;;;2.42;0.50;;;;;;;14.37;98.71;101424.97;5031643;28;20033;-68
2023/10/08 01:42:43;;;;;;;0.90;0.50;;;;;;;14.33;98.91;101426.84;5028377;28;20021;-68
2023/10/08 01:45:10;;;;;;;3.40;1.45;;;;;;;14.30;99.15;101429.47;5029451;28;20816;-68
2023/10/08 01:47:36;;;;;;;2.42;0.80;;;;;;;14.21;99.02;101437.00;5030417;28;20124;-68
2023/10/08 01:50:05;;;;;;;0.65;0.63;;;;;;;14.23;99.43;101440.16;5024902;28;20233;-67
2023/10/08 01:52:31;;;;;;;1.60;0.80;;;;;;;14.24;99.29;101449.84;5027928;28;20037;-68
2023/10/08 01:54:57;;;;;;;1.45;0.82;;;;;;;14.30;99.35;101457.34;5027541;28;20029;-68
2023/10/08 01:57:23;;;;;;;1.40;0.70;;;;;;;14.30;99.14;101457.34;5024666;28;20047;-67
2023/10/08 01:59:49;;;;;;;4.63;0.95;;;;;;;14.28;99.08;101451.53;5028555;28;20029;-67
2023/10/08 02:02:17;;;;;;;2.90;0.98;;;;;;;14.26;98.60;101429.41;5029838;28;20107;-67
2023/10/08 02:04:43;;;;;;;1.33;0.50;;;;;;;14.30;99.07;101407.81;5035211;28;20083;-67
2023/10/08 02:07:12;;;;;;;2.03;0.88;;;;;;;14.26;98.48;101410.44;5027378;28;20033;-67
2023/10/08 02:09:39;;;;;;;4.43;0.75;;;;;;;14.29;98.38;101411.66;5028168;28;20032;-67
2023/10/08 02:12:04;;;;;;;3.30;0.80;;;;;;;14.24;98.67;101398.38;5028260;28;20026;-67
2023/10/08 02:14:31;;;;;;;0.75;0.52;;;;;;;14.17;98.87;101403.66;5028989;28;20541;-67
2023/10/08 02:17:01;;;;;;;1.20;0.60;;;;;;;14.21;99.06;101409.91;5028574;28;20033;-67
2023/10/08 02:19:28;;;;;;;1.65;0.50;;;;;;;14.16;99.26;101400.19;5029735;28;20038;-67
2023/10/08 02:21:54;;;;;;;1.95;0.32;;;;;;;14.16;99.09;101404.81;5010428;28;20489;-67
2023/10/08 02:24:23;;;;;;;1.80;0.60;;;;;;;14.15;99.37;101417.56;5015515;28;20025;-67
2023/10/08 02:26:54;;;;;;;2.17;0.65;;;;;;;14.20;98.99;101422.69;5032175;28;20120;-68
2023/10/08 02:29:21;;;;;;;4.20;1.20;;;;;;;14.19;98.93;101437.38;5036316;28;20033;-67
2023/10/08 02:31:47;;;;;;;1.73;0.88;;;;;;;14.16;98.72;101440.81;5016933;28;20044;-68
2023/10/08 02:34:13;;;;;;;2.03;0.85;;;;;;;14.14;98.99;101453.16;5035855;28;20033;-68
2023/10/08 02:36:42;;;;;;;1.58;1.00;;;;;;;14.14;98.55;101451.22;5032877;28;20052;-67
2023/10/08 02:39:18;;;;;;;1.83;0.63;;;;;;;14.13;98.52;101465.13;5033134;28;20473;-68
2023/10/08 02:41:46;;;;;;;1.30;0.50;;;;;;;14.07;98.80;101459.19;5031149;28;20039;-67
2023/10/08 02:44:13;;;;;;;0.68;0.47;;;;;;;14.03;98.70;101461.06;5036883;28;20044;-68
2023/10/08 02:46:44;;;;;;;1.20;0.70;;;;;;;14.04;98.97;101478.88;5035143;28;20037;-68
2023/10/08 02:49:11;;;;;;;2.30;0.50;;;;;;;14.05;99.01;101482.38;5027876;28;20063;-68
2023/10/08 02:51:41;;;;;;;3.03;0.60;;;;;;;14.09;98.83;101486.72;5030931;28;20081;-67
2023/10/08 02:54:16;;;;;;;1.58;0.70;;;;;;;14.08;98.79;101489.78;5038439;28;20039;-68
2023/10/08 02:56:44;;;;;;;1.42;0.40;;;;;;;14.07;99.34;101488.22;5032340;28;20413;-68
2023/10/08 02:59:12;;;;;;;7.32;1.98;;;;;;;14.03;99.20;101488.13;5025852;28;20025;-68
2023/10/08 03:01:39;;;;;;;0.47;0.38;;;;;;;14.04;99.21;101497.84;5018595;28;20087;-68
2023/10/08 03:04:18;;;;;;;8.68;0.52;;;;;;;14.05;99.52;101493.22;5035291;28;20395;-68
2023/10/08 03:06:50;;;;;;;3.78;0.95;;;;;;;14.06;99.51;101502.91;5033868;28;20033;-69
2023/10/08 03:09:23;;;;;;;0.38;0.22;;;;;;;14.10;99.16;101518.09;5035071;28;20417;-68
2023/10/08 03:11:49;;;;;;;0.57;0.35;;;;;;;14.08;98.58;101497.91;5019309;28;20044;-68
2023/10/08 03:14:21;;;;;;;0.43;0.30;;;;;;;14.04;98.87;101507.88;5035031;28;20515;-67
2023/10/08 03:17:07;;;;;;;1.75;0.55;;;;;;;14.03;98.50;101517.16;5043413;28;20026;-68
2023/10/08 03:19:32;;;;;;;1.52;0.45;;;;;;;14.00;98.52;101507.03;5030930;28;20025;-68
2023/10/08 03:21:58;;;;;;;1.80;0.50;;;;;;;13.98;98.47;101509.31;5029347;28;20371;-68
2023/10/08 03:24:48;;;;;;;2.17;0.52;;;;;;;13.96;98.48;101517.00;5030791;28;20041;-67
2023/10/08 03:27:15;;;;;;;2.88;0.63;;;;;;;13.96;98.18;101514.31;5032004;28;20033;-68
2023/10/08 03:29:41;;;;;;;;;;;;;;;13.90;98.15;101521.16;5034545;28;20045;-69
2023/10/08 03:32:16;;;;;;;0.82;0.38;;;;;;;13.90;98.63;101524.63;5033524;28;20000;-69
2023/10/08 03:34:46;;;;;;;2.88;0.45;;;;;;;13.86;98.49;101523.00;5033420;28;20030;-68
2023/10/08 03:37:21;;;;;;;0.43;0.25;;;;;;;13.83;98.25;101529.91;5026940;28;20041;-68
2023/10/08 03:39:51;;;;;;;1.50;0.60;;;;;;;13.76;97.99;101531.69;5030951;28;20058;-69
2023/10/08 03:42:26;;;;;;;1.00;0.40;;;;;;;13.79;97.70;101533.66;5033180;28;20129;-69
2023/10/08 03:44:54;;;;;;;1.15;0.40;;;;;;;13.73;97.63;101522.34;5030355;28;20036;-69
2023/10/08 03:47:22;;;;;;;1.25;0.50;;;;;;;13.71;98.12;101537.38;5031815;28;20486;-69
2023/10/08 03:49:51;;;;;;;0.40;0.40;;;;;;;13.72;97.41;101545.16;5027904;28;20037;-70
2023/10/08 03:52:22;;;;;;;1.00;0.40;;;;;;;13.70;97.76;101547.44;5031972;28;20099;-68
2023/10/08 03:55:04;;;;;;;1.48;0.55;;;;;;;13.72;97.55;101552.47;5030681;28;20367;-69
2023/10/08 03:57:41;;;;;;;0.38;0.38;;;;;;;13.68;97.57;101562.44;5030895;28;20108;-68
2023/10/08 04:00:12;;;;;;;1.75;0.50;;;;;;;13.61;97.19;101549.53;5030631;28;20037;-69
2023/10/08 04:02:46;;;;;;;2.45;0.40;;;;;;;13.55;96.86;101526.56;5031078;28;20033;-68
2023/10/08 04:05:21;;;;;;;1.27;0.40;;;;;;;13.57;96.82;101541.31;5029460;28;20080;-69
2023/10/08 04:13:09;;;;;;;0.50;0.45;;;;;;;13.42;97.64;101558.38;5030355;28;20041;-68
2023/10/08 04:15:41;;;;;;;0.32;0.30;;;;;;;13.51;97.42;101569.03;5032019;28;20025;-69
2023/10/08 04:18:10;;;;;;;2.08;0.50;;;;;;;13.54;97.54;101565.63;5030448;28;20036;-69
2023/10/08 04:23:04;;;;;;;1.45;0.50;;;;;;;13.54;97.39;101563.69;5025895;28;20044;-68
2023/10/08 04:25:31;;;;;;;1.63;0.25;;;;;;;13.50;97.27;101562.03;5024870;28;20108;-69
2023/10/08 04:28:01;;;;;;;0.63;0.38;;;;;;;13.51;97.23;101571.75;5026866;28;20029;-68
2023/10/08 04:30:36;;;;;;;0.90;0.40;;;;;;;13.43;97.10;101572.72;5019490;28;20030;-69
2023/10/08 04:33:11;;;;;;;1.00;0.45;;;;;;;13.35;97.53;101573.66;5028444;28;20441;-69
2023/10/08 04:36:01;;;;;;;0.47;0.40;;;;;;;13.40;97.08;101576.09;5028262;28;20040;-69
2023/10/08 04:38:26;;;;;;;1.45;0.50;;;;;;;13.36;96.96;101583.34;5029212;28;20104;-68
2023/10/08 04:40:52;;;;;;;2.45;0.50;;;;;;;13.32;97.31;101593.28;5028218;28;20017;-69
2023/10/08 04:43:24;;;;;;;3.60;0.50;;;;;;;13.33;97.19;101595.66;5027598;28;20387;-69
2023/10/08 04:46:06;;;;;;;2.60;0.47;;;;;;;13.32;96.50;101594.09;5034574;28;20029;-68
2023/10/08 04:48:36;;;;;;;1.95;0.60;;;;;;;13.29;96.98;101602.91;5040023;28;20056;-69
2023/10/08 04:51:03;;;;;;;4.88;0.50;;;;;;;13.32;96.48;101610.31;5030345;28;20124;-69
2023/10/08 04:53:36;;;;;;;1.17;0.52;;;;;;;13.26;96.68;101616.31;5029710;28;20405;-68
2023/10/08 04:56:09;;;;;;;1.88;0.43;;;;;;;13.28;96.65;101614.06;5029025;28;20041;-69
2023/10/08 04:58:40;;;;;;;0.55;0.43;;;;;;;13.24;96.79;101602.41;5030553;28;20079;-69
2023/10/08 05:04:07;;;;;;;1.65;0.43;;;;;;;13.23;97.16;101608.91;5028021;28;20033;-69
2023/10/08 05:14:38;;;;;;;0.98;0.35;;;;;;;13.22;97.68;101616.25;5028893;28;20600;-68
2023/10/08 05:17:11;;;;;;;1.88;0.30;;;;;;;13.22;97.62;101623.59;5028823;28;20033;-69
2023/10/08 06:05:22;;;;;;;0.30;0.30;;;;;;;13.06;96.54;101682.28;5030362;28;20033;-67
2023/10/08 06:13:09;;;;;;;0.82;0.43;;;;;;;12.94;96.63;101685.00;5026252;28;20065;-68
2023/10/08 06:18:20;;;;;;;0.50;0.50;;;;;;;12.83;96.21;101702.84;5025342;28;20033;-67
2023/10/08 06:20:46;;;;;;;0.73;0.45;;;;;;;12.83;95.47;101702.84;5025923;28;20099;-68
2023/10/08 06:23:20;;;;;;;4.13;0.50;;;;;;;12.80;95.67;101714.34;5018378;28;20053;-67
2023/10/08 06:25:46;;;;;;;0.80;0.32;;;;;;;12.78;95.86;101706.56;5027556;28;20040;-67
2023/10/08 06:28:12;;;;;;;0.25;0.20;;;;;;;12.79;95.56;101712.78;5028404;28;20041;-68
2023/10/08 06:30:40;;;;;;;0.35;0.35;;;;;;;12.78;95.68;101725.50;5028050;28;20437;-67
2023/10/08 06:33:10;;;;;;;5.50;0.40;;;;;;;12.73;95.77;101727.66;5028341;28;20046;-68
2023/10/08 06:35:36;;;;;;;1.55;0.30;;;;;;;12.75;95.74;101733.50;5025989;28;20033;-68
2023/10/08 06:38:09;;;;;;;1.15;0.60;;;;;;;12.73;96.06;101741.19;5028377;28;20045;-69
2023/10/08 06:43:21;;;;;;;2.63;0.63;;;;;;;12.74;96.14;101743.53;5029085;28;20568;-69
2023/10/08 06:45:47;;;;;;;1.02;0.40;;;;;;;12.79;96.39;101756.81;5027292;28;20045;-68
2023/10/08 06:48:23;;;;;;;0.25;0.25;;;;;;;12.81;96.41;101759.97;5026348;28;20055;-69
2023/10/08 06:50:50;;;;;;;0.82;0.45;;;;;;;12.84;96.46;101759.28;5027602;28;20029;-68
2023/10/08 06:53:18;;;;;;;0.65;0.63;;;;;;;12.83;96.72;101768.53;5028304;28;20041;-68
2023/10/08 06:55:44;;;;;;;0.85;0.35;;;;;;;12.89;96.85;101774.47;5027314;28;20041;-68
2023/10/08 06:58:11;;;;;;;5.15;0.60;;;;;;;12.93;97.54;101780.78;5028486;28;20033;-68
2023/10/08 07:00:39;;;;;;;1.98;0.55;;;;;;;12.96;96.95;101777.38;5028364;28;20038;-68
2023/10/08 07:03:10;;;;;;;1.27;0.45;;;;;;;12.98;97.59;101786.72;5017146;28;20040;-69
2023/10/08 07:05:40;;;;;;;1.40;0.47;;;;;;;13.00;97.36;101789.09;5027047;28;20528;-68
2023/10/08 07:08:12;;;;;;;1.30;0.45;;;;;;;13.04;97.52;101790.81;5026911;28;20056;-69
2023/10/08 07:10:40;;;;;;;2.05;0.50;;;;;;;13.01;97.39;101791.44;5026601;28;20088;-68
2023/10/08 07:13:07;;;;;;;1.25;0.63;;;;;;;13.05;98.08;101791.56;5029677;28;20029;-68
2023/10/08 07:15:40;;;;;;;1.77;0.35;;;;;;;13.10;98.21;101785.94;5029791;28;20026;-69
2023/10/08 07:18:19;;;;;;;0.70;0.57;;;;;;;13.27;97.68;101780.22;5031002;28;20516;-69
2023/10/08 07:20:53;;;;;;;;;;;;;;;13.44;97.58;101791.53;5033870;28;20401;-68
2023/10/08 07:23:18;;;;;;;;;;;;;;;13.72;97.00;101798.84;5036316;28;20344;-68
2023/10/08 07:25:53;;;;;;;0.43;0.30;;;;;;;14.04;96.57;101792.31;5028613;28;19913;-69
2023/10/08 07:28:19;;;;;;;1.35;0.28;;;;;;;14.28;95.30;101805.72;5026131;28;20033;-68
2023/10/08 07:30:49;;;;;;;0.30;0.30;;;;;;;14.42;95.10;101806.81;5031413;28;20017;-69
2023/10/08 07:33:18;;;;;;;1.42;0.35;;;;;;;14.59;94.56;101805.66;5028437;28;20049;-68
2023/10/08 07:35:53;;;;;;;0.82;0.40;;;;;;;14.86;94.09;101817.50;5025995;28;20036;-68
2023/10/08 07:38:19;;;;;;;2.00;0.60;;;;;;;15.07;93.05;101815.22;5028119;28;20112;-68
2023/10/08 07:40:44;;;;;;;2.15;0.30;;;;;;;15.23;92.12;101813.25;5031009;28;20641;-68
2023/10/08 07:43:10;;;;;;;0.22;0.20;;;;;;;15.37;91.73;101811.59;5031966;28;20061;-68
2023/10/08 07:45:37;;;;;;;0.55;0.28;;;;;;;15.47;91.02;101817.59;5033883;28;20104;-68
2023/10/08 07:48:09;;;;;;;1.08;0.47;;;;;;;15.65;90.36;101822.22;5032832;28;20037;-68
2023/10/08 07:50:40;;;;;;;1.75;0.60;;;;;;;15.74;89.38;101824.69;5032299;28;20586;-68
2023/10/08 07:53:06;;;;;;;2.95;0.50;;;;;;;15.89;88.84;101835.47;5033388;28;20646;-68
2023/10/08 07:55:32;;;;;;;0.35;0.28;;;;;;;15.97;87.25;101837.16;5030981;28;20112;-67
2023/10/08 07:57:59;;;;;;;2.30;0.50;;;;;;;16.15;86.89;101843.69;5031148;28;20513;-68
2023/10/08 08:00:26;;;;;;;2.38;0.20;;;;;;;16.33;86.41;101841.28;5032244;28;20036;-67
2023/10/08 08:02:56;;;;;;;0.40;0.20;;;;;;;16.54;85.52;101847.09;5032383;28;20112;-67
2023/10/08 08:05:22;;;;;;;1.40;0.40;;;;;;;16.72;84.59;101845.41;5027316;28;20042;-67
2023/10/08 08:07:50;;;;;;;0.47;0.20;;;;;;;16.80;83.16;101851.75;5031566;28;20060;-67
2023/10/08 08:10:15;;;;;;;1.75;0.20;;;;;;;16.81;82.70;101853.31;5032426;28;20041;-68
2023/10/08 08:12:42;;;;;;;0.40;0.25;;;;;;;16.81;82.21;101862.25;5032882;28;20029;-67
2023/10/08 08:15:16;;;;;;;0.10;0.10;;;;;;;16.86;81.42;101856.50;5031751;28;20139;-67
2023/10/08 08:17:43;;;;;;;0.30;0.20;;;;;;;16.91;80.55;101858.13;5030519;28;20037;-68
2023/10/08 08:20:18;;;;;;;0.82;0.40;;;;;;;16.90;80.81;101868.22;5030709;28;20017;-68
2023/10/08 08:22:49;;;;;;;1.95;0.30;;;;;;;16.89;79.47;101871.31;5031738;28;20037;-68
2023/10/08 08:25:33;;;;;;;2.60;0.32;;;;;;;16.84;78.93;101864.22;5030117;28;20048;-68
2023/10/08 08:27:59;;;;;;;0.25;0.10;;;;;;;16.95;80.00;101869.84;5027302;28;20029;-66
2023/10/08 08:30:26;;;;;;;0.77;0.20;;;;;;;17.04;80.09;101878.50;5041689;28;20028;-66
2023/10/08 08:32:52;;;;;;;2.53;0.40;;;;;;;17.03;80.09;101871.50;5030136;28;20064;-66
2023/10/08 08:35:19;;;;;;;1.00;0.30;;;;;;;17.03;78.82;101877.72;5025784;28;20073;-66
2023/10/08 08:37:46;;;;;;;1.05;0.28;;;;;;;17.01;80.17;101882.75;5031905;28;20522;-66
2023/10/08 08:40:17;;;;;;;0.98;0.45;;;;;;;17.14;79.45;101886.03;5029211;28;20500;-68
2023/10/08 08:42:51;;;;;;;0.15;0.10;;;;;;;17.17;78.18;101898.91;5030041;28;20116;-68
2023/10/08 08:45:20;;;;;;;0.95;0.30;;;;;;;17.26;78.32;101896.72;5027819;28;20079;-68
2023/10/08 08:47:46;;;;;;;0.52;0.30;;;;;;;17.39;77.34;101895.31;5028194;28;20116;-67
2023/10/08 08:50:11;;;;;;;0.45;0.10;;;;;;;17.58;77.06;101906.09;5024638;28;20117;-66
2023/10/08 08:52:38;;;;;;;0.20;0.20;;;;;;;17.77;75.44;101903.19;5029548;28;20083;-67
2023/10/08 08:55:17;;;;;;;0.55;0.30;;;;;;;17.90;76.34;101898.28;5030803;28;20040;-66
2023/10/08 08:57:51;;;;;;;1.20;0.35;;;;;;;18.03;76.06;101907.75;5024433;28;20033;-67
2023/10/08 09:00:19;;;;;;;0.77;0.40;;;;;;;18.22;74.69;101909.50;5023912;28;20433;-66
2023/10/08 09:02:47;;;;;;;1.48;0.30;;;;;;;18.19;74.48;101915.72;5030256;28;20116;-66
2023/10/08 09:05:14;;;;;;;0.65;0.22;;;;;;;18.40;73.00;101915.91;5030332;28;20060;-66
2023/10/08 09:07:59;;;;;;;1.02;0.47;;;;;;;18.55;71.32;101918.41;5030577;28;20049;-66
2023/10/08 09:10:29;;;;;;;0.20;0.10;;;;;;;18.78;69.13;101931.84;5028237;28;20521;-67
2023/10/08 09:12:59;;;;;;;0.85;0.20;;;;;;;18.93;69.38;101933.50;5028542;28;20030;-67
2023/10/08 09:15:28;;;;;;;0.47;0.28;;;;;;;19.08;70.22;101929.72;5029866;28;20029;-66
2023/10/08 09:18:00;;;;;;;0.75;0.15;;;;;;;19.20;70.22;101929.38;5030435;28;20021;-67
2023/10/08 09:20:27;;;;;;;2.15;0.28;;;;;;;19.12;68.34;101935.19;5036182;28;20113;-67
2023/10/08 09:23:11;;;;;;;0.40;0.30;;;;;;;19.24;66.45;101934.88;5029306;28;20124;-67
2023/10/08 09:25:41;;;;;;;3.15;0.55;;;;;;;19.17;65.21;101932.88;5029989;28;20039;-67
2023/10/08 09:28:07;;;;;;;0.38;0.30;;;;;;;19.13;66.68;101934.00;5030883;28;20056;-67
2023/10/08 09:30:39;;;;;;;0.32;0.20;;;;;;;19.00;65.51;101939.03;5029168;28;20494;-67
2023/10/08 09:33:10;;;;;;;0.30;0.22;;;;;;;19.06;65.69;101937.50;5029194;28;20052;-67
2023/10/08 09:35:36;;;;;;;0.88;0.28;;;;;;;19.03;66.26;101932.03;5032299;28;20024;-67
2023/10/08 09:38:08;;;;;;;1.75;0.60;;;;;;;19.06;66.62;101933.97;5026465;28;20076;-67
2023/10/08 09:40:41;;;;;;;0.68;0.28;;;;;;;19.02;69.85;101941.38;5026899;28;20132;-67
2023/10/08 09:43:09;;;;;;;1.50;0.30;;;;;;;18.99;70.87;101942.91;5030675;28;20038;-66
2023/10/08 09:45:38;;;;;;;0.88;0.30;;;;;;;18.79;70.31;101952.53;5024436;28;20116;-67
2023/10/08 09:48:11;;;;;;;1.23;0.20;;;;;;;18.86;69.39;101947.09;5027695;28;20480;-67
2023/10/08 09:50:39;;;;;;;0.15;0.10;;;;;;;18.88;68.54;101952.97;5008336;28;20052;-67
2023/10/08 09:53:16;;;;;;;0.30;0.20;;;;;;;18.87;68.48;101945.97;5028938;28;20485;-67
2023/10/08 09:55:51;;;;;;;0.90;0.40;;;;;;;18.72;66.45;101949.72;5027984;28;20044;-67
2023/10/08 09:58:17;;;;;;;1.02;0.22;;;;;;;18.71;68.74;101962.59;5027530;28;20060;-66
2023/10/08 10:00:44;;;;;;;1.75;0.57;;;;;;;18.88;67.87;101972.09;5025001;28;20466;-67
2023/10/08 10:03:12;;;;;;;2.30;0.70;;;;;;;18.96;67.23;101962.78;5025712;28;20028;-67
2023/10/08 10:05:38;;;;;;;0.57;0.50;;;;;;;19.00;69.35;101960.09;5023401;28;20030;-66
2023/10/08 10:08:09;;;;;;;0.75;0.40;;;;;;;19.02;71.76;101966.75;5027477;28;20029;-66
2023/10/08 10:10:38;;;;;;;0.20;0.20;;;;;;;19.04;70.85;101966.34;5019492;28;20442;-66
2023/10/08 10:13:10;;;;;;;0.20;0.20;;;;;;;19.13;67.56;101966.78;5027193;28;20028;-67
2023/10/08 10:15:39;;;;;;;0.28;0.15;;;;;;;19.20;66.28;101975.06;5027060;28;20448;-66
2023/10/08 10:18:28;;;;;;;2.60;0.25;;;;;;;19.19;65.53;101968.81;5025210;28;20034;-66
2023/10/08 10:21:17;;;;;;;0.60;0.38;;;;;;;19.25;63.97;101970.00;5027341;28;20085;-67
2023/10/08 10:23:53;;;;;;;1.25;0.40;;;;;;;19.11;64.09;101960.94;5027102;28;20036;-67
2023/10/08 10:26:33;;;;;;;1.17;0.30;;;;;;;18.98;65.67;101974.13;5026566;28;20033;-66
2023/10/08 10:29:14;;;;;;;1.48;0.40;;;;;;;18.86;63.70;101971.69;5036548;28;20057;-67
2023/10/08 10:32:02;;;;;;;0.35;0.20;;;;;;;18.74;63.66;101974.69;5024769;28;20402;-67
2023/10/08 10:34:27;;;;;;;0.93;0.30;;;;;;;18.59;64.04;101979.25;5025175;28;20055;-67
2023/10/08 10:36:56;;;;;;;0.80;0.30;;;;;;;18.45;61.65;101987.31;5024411;28;20481;-67
2023/10/08 10:39:26;;;;;;;0.60;0.30;;;;;;;18.50;61.36;101983.47;5020257;28;20033;-68
2023/10/08 10:42:05;;;;;;;0.73;0.40;;;;;;;18.58;60.60;101972.22;5026527;28;20033;-67
2023/10/08 10:44:32;;;;;;;2.95;0.50;;;;;;;18.67;59.26;101974.66;5029636;28;20105;-68
2023/10/08 10:52:31;;;;;;;0.20;0.20;;;;;;;19.14;57.28;101985.56;5034002;28;20121;-67
2023/10/08 10:57:41;;;;;;;0.63;0.30;;;;;;;19.24;57.45;101960.22;5029090;28;20102;-67
2023/10/08 11:02:56;;;;;;;0.73;0.15;;;;;;;19.06;56.12;101944.91;5025670;28;20037;-68
2023/10/08 11:05:28;;;;;;;1.08;0.40;;;;;;;18.84;56.83;101952.94;5030656;28;20417;-68
2023/10/08 11:08:04;;;;;;;0.20;0.20;;;;;;;18.70;60.56;101952.03;5032302;28;20502;-68
2023/10/08 11:10:38;;;;;;;0.20;0.13;;;;;;;18.61;58.70;101955.09;5030659;28;20420;-67
2023/10/08 11:13:14;;;;;;;0.70;0.22;;;;;;;18.62;56.16;101944.97;5030761;28;20511;-68
2023/10/08 11:15:40;;;;;;;0.98;0.35;;;;;;;18.20;58.15;101936.34;5032588;28;20053;-67
2023/10/08 11:18:17;;;;;;;0.65;0.43;;;;;;;18.20;58.10;101933.63;5032783;28;20482;-67
2023/10/08 11:20:46;;;;;;;0.70;0.30;;;;;;;18.48;59.62;101932.00;5031612;28;20025;-68
2023/10/08 11:23:35;;;;;;;0.30;0.20;;;;;;;18.73;57.47;101929.47;5024225;28;20026;-67
2023/10/08 11:26:03;;;;;;;0.57;0.20;;;;;;;18.75;58.06;101929.88;5030319;28;20040;-68
2023/10/08 11:28:41;;;;;;;1.67;0.20;;;;;;;18.77;57.56;101925.63;5029316;28;20025;-68
2023/10/08 11:31:10;;;;;;;0.20;0.10;;;;;;;18.79;57.69;101923.25;5028201;28;20115;-68
2023/10/08 11:33:38;;;;;;;0.45;0.20;;;;;;;18.54;56.65;101921.53;5030104;28;20426;-67
2023/10/08 11:36:27;;;;;;;2.38;0.30;;;;;;;18.71;56.45;101915.41;5016851;28;20366;-68
2023/10/08 11:38:53;;;;;;;0.30;0.20;;;;;;;18.79;57.07;101925.22;5022391;28;20025;-68
2023/10/08 11:41:22;;;;;;;0.30;0.20;;;;;;;18.79;56.08;101927.97;5028584;28;20474;-68
2023/10/08 11:43:58;;;;;;;1.05;0.30;;;;;;;18.76;60.18;101934.16;5029408;28;20033;-67
2023/10/08 11:46:40;;;;;;;0.50;0.30;;;;;;;18.80;60.91;101937.69;5011883;28;20508;-68
2023/10/08 11:49:07;;;;;;;0.40;0.20;;;;;;;18.78;58.21;101935.34;5033040;28;20541;-68
2023/10/08 11:51:34;;;;;;;0.50;0.30;;;;;;;18.63;56.71;101936.41;5029330;28;20030;-67
2023/10/08 11:54:05;;;;;;;0.30;0.22;;;;;;;18.58;55.73;101931.28;5031184;28;20038;-68
2023/10/08 11:56:33;;;;;;;2.15;0.30;;;;;;;18.65;56.55;101938.75;5020801;28;20176;-67
2023/10/08 11:59:01;;;;;;;0.28;0.17;;;;;;;18.48;54.89;101934.72;5027192;28;20440;-66
2023/10/08 12:01:27;;;;;;;1.90;0.30;;;;;;;18.62;55.97;101944.97;5024936;28;20678;-67
2023/10/08 12:03:59;;;;;;;0.93;0.32;;;;;;;18.85;57.15;101938.13;5028162;28;20151;-68
2023/10/08 12:06:25;;;;;;;0.32;0.28;;;;;;;19.05;56.63;101929.69;5026064;28;20092;-68
2023/10/08 12:08:53;;;;;;;0.65;0.15;;;;;;;19.14;54.28;101922.72;5026687;28;20707;-68
2023/10/08 12:11:22;;;;;;;0.63;0.17;;;;;;;19.04;53.44;101918.00;5003111;28;20473;-67
2023/10/08 12:13:49;;;;;;;2.10;0.40;;;;;;;19.05;52.88;101916.03;5030026;28;20034;-67
2023/10/08 12:16:21;;;;;;;2.95;0.45;;;;;;;19.22;53.83;101918.09;5027380;28;20186;-67
2023/10/08 12:18:58;;;;;;;1.10;0.13;;;;;;;19.19;53.39;101930.56;5031412;28;20030;-68
2023/10/08 12:21:29;;;;;;;0.10;0.10;;;;;;;19.23;52.09;101936.03;5023087;28;20034;-68
2023/10/08 12:23:57;;;;;;;0.50;0.30;;;;;;;19.23;51.73;101936.81;5028433;28;20418;-67
2023/10/08 12:26:22;;;;;;;0.50;0.10;;;;;;;19.06;50.86;101937.50;5019955;28;20453;-67
2023/10/08 12:28:49;;;;;;;0.10;0.10;;;;;;;18.98;50.32;101924.19;5027164;28;20083;-67
2023/10/08 12:31:24;;;;;;;0.98;0.40;;;;;;;19.04;51.33;101904.34;5027273;28;20502;-67
2023/10/08 12:33:53;;;;;;;0.73;0.28;;;;;;;18.67;50.49;101914.59;5024435;28;20051;-67
2023/10/08 12:36:22;;;;;;;0.10;0.10;;;;;;;18.59;52.38;101911.03;5029676;28;20036;-66
2023/10/08 12:38:48;;;;;;;0.40;0.40;;;;;;;18.69;53.70;101901.34;5025350;28;20120;-67
2023/10/08 12:41:14;;;;;;;0.65;0.40;;;;;;;18.78;53.18;101902.59;5025772;28;20116;-67
2023/10/08 12:43:52;;;;;;;0.28;0.10;;;;;;;18.75;53.49;101905.31;5024568;28;20124;-67
2023/10/08 12:46:30;;;;;;;0.90;0.30;;;;;;;18.61;53.48;101905.19;5027624;28;20124;-67
2023/10/08 12:48:56;;;;;;;1.60;0.13;;;;;;;18.49;53.10;101913.66;5025556;28;20099;-67
2023/10/08 12:51:25;;;;;;;0.52;0.20;;;;;;;18.55;52.71;101914.88;5030305;28;20776;-66
2023/10/08 12:54:06;;;;;;;0.10;0.10;;;;;;;18.52;52.59;101915.66;5021347;28;20037;-67
2023/10/08 12:56:38;;;;;;;0.60;0.20;;;;;;;18.31;52.40;101918.16;5023676;28;20038;-67
2023/10/08 12:59:07;;;;;;;0.52;0.20;;;;;;;18.21;54.81;101921.56;5026710;28;20043;-67
2023/10/08 13:01:36;;;;;;;0.20;0.20;;;;;;;18.32;53.12;101914.25;5026840;28;20034;-66
2023/10/08 13:04:07;;;;;;;2.00;0.30;;;;;;;18.16;53.16;101916.44;5024187;28;20055;-67
2023/10/08 13:06:37;;;;;;;0.75;0.35;;;;;;;18.23;54.55;101925.50;5032570;28;20029;-67
2023/10/08 13:09:09;;;;;;;1.20;0.40;;;;;;;18.13;56.61;101915.28;5029907;28;20048;-67
2023/10/08 13:11:34;;;;;;;0.20;0.17;;;;;;;18.21;55.45;101919.63;5022503;28;20120;-67
2023/10/08 13:14:00;;;;;;;0.30;0.15;;;;;;;18.31;55.71;101923.63;5027213;28;20112;-67